Meadow Creek, North Carolina
Current Conditions -  °F | °C
As of 2:15 PM on Monday 20 Oct 2014 (Local Time) from KTNB Reporting Station
Clear Clear  
Wind Chill: 60°   Ceiling: Unl
Heat Index: 60°   Visibility: 10mi
Dew Point: 38°   Wind: 3mph
Humidity: 43%   Direction: 20°NNE
Pressure: 30.04"   Gusts: NA
Location:  36.1935°N, 81.5276°W
Report Text: KTNB 201815Z AUTO 02003KT 10SM CLR 16/03 A3004 RMK AO2 T01560031
Loading
Personal Weather Stations






























Interactive Weather Map
Tropical Storm Tracking
New forecast layout! Learn more

10-Day Weather Forecast

Advertisements
Track Severe Weather on mobile